Terminal Aerodrome Forecast
Issued by NWS

Home | Current Version | Previous Version | Text Only | Print | Product List | Glossary Off
Versions: 1 2 3 4 5 6 7 8 9 10 11 12 13 14 15 16 17

000
FTUS43 KMPX 260520
TAFRNH
TAF
KRNH 260520Z 2606/2706 29010KT P6SM SCT040
     FM261500 32012G20KT P6SM SCT050
     FM270000 34006KT P6SM SKC=

USA.gov is the U.S. government's official web portal to all federal, state and local government web resources and services.